sensor_id;sensor_type;location;lat;lon;timestamp;P1;durP1;ratioP1;P2;durP2;ratioP2
21120;SDS011;12519;43.318;21.898;2022-08-04T00:00:16;6.0;;;6.0;;
21120;SDS011;12519;43.318;21.898;2022-08-04T00:05:05;6.0;;;5.0;;
21120;SDS011;12519;43.318;21.898;2022-08-04T00:10:18;6.0;;;5.0;;
21120;SDS011;12519;43.318;21.898;2022-08-04T00:15:10;6.0;;;6.0;;
21120;SDS011;12519;43.318;21.898;2022-08-04T00:20:02;6.0;;;6.0;;
21120;SDS011;12519;43.318;21.898;2022-08-04T00:24:54;6.0;;;6.0;;
21120;SDS011;12519;43.318;21.898;2022-08-04T00:29:39;6.0;;;6.0;;
21120;SDS011;12519;43.318;21.898;2022-08-04T00:34:18;6.0;;;6.0;;
21120;SDS011;12519;43.318;21.898;2022-08-04T00:38:59;6.0;;;6.0;;
21120;SDS011;12519;43.318;21.898;2022-08-04T00:44:15;6.0;;;5.0;;
21120;SDS011;12519;43.318;21.898;2022-08-04T00:50:10;6.0;;;5.0;;
21120;SDS011;12519;43.318;21.898;2022-08-04T00:57:10;6.0;;;5.0;;
21120;SDS011;12519;43.318;21.898;2022-08-04T01:03:17;7.0;;;5.0;;
21120;SDS011;12519;43.318;21.898;2022-08-04T01:09:10;7.0;;;5.0;;
21120;SDS011;12519;43.318;21.898;2022-08-04T01:15:03;6.0;;;5.0;;
21120;SDS011;12519;43.318;21.898;2022-08-04T01:20:05;6.0;;;5.0;;
21120;SDS011;12519;43.318;21.898;2022-08-04T01:25:59;5.0;;;5.0;;
21120;SDS011;12519;43.318;21.898;2022-08-04T01:32:02;6.0;;;6.0;;
21120;SDS011;12519;43.318;21.898;2022-08-04T01:37:10;6.0;;;6.0;;
21120;SDS011;12519;43.318;21.898;2022-08-04T01:42:05;6.0;;;6.0;;
21120;SDS011;12519;43.318;21.898;2022-08-04T01:46:51;6.0;;;6.0;;
21120;SDS011;12519;43.318;21.898;2022-08-04T01:51:38;6.0;;;6.0;;
21120;SDS011;12519;43.318;21.898;2022-08-04T01:56:17;6.0;;;6.0;;
21120;SDS011;12519;43.318;21.898;2022-08-04T02:01:08;6.0;;;6.0;;
21120;SDS011;12519;43.318;21.898;2022-08-04T02:06:09;5.0;;;5.0;;
21120;SDS011;12519;43.318;21.898;2022-08-04T02:12:00;5.0;;;5.0;;
21120;SDS011;12519;43.318;21.898;2022-08-04T02:17:33;5.0;;;5.0;;
21120;SDS011;12519;43.318;21.898;2022-08-04T02:23:02;5.0;;;5.0;;
21120;SDS011;12519;43.318;21.898;2022-08-04T02:28:20;5.0;;;5.0;;
21120;SDS011;12519;43.318;21.898;2022-08-04T02:33:28;6.0;;;6.0;;
21120;SDS011;12519;43.318;21.898;2022-08-04T02:38:53;6.0;;;6.0;;
21120;SDS011;12519;43.318;21.898;2022-08-04T02:43:47;6.0;;;6.0;;
21120;SDS011;12519;43.318;21.898;2022-08-04T02:48:35;6.0;;;6.0;;
21120;SDS011;12519;43.318;21.898;2022-08-04T02:53:25;6.0;;;5.0;;
21120;SDS011;12519;43.318;21.898;2022-08-04T02:58:11;6.0;;;5.0;;
21120;SDS011;12519;43.318;21.898;2022-08-04T03:03:26;6.0;;;4.0;;
21120;SDS011;12519;43.318;21.898;2022-08-04T03:09:20;6.0;;;4.0;;
21120;SDS011;12519;43.318;21.898;2022-08-04T03:15:22;6.0;;;4.0;;
21120;SDS011;12519;43.318;21.898;2022-08-04T03:22:40;6.0;;;5.0;;
21120;SDS011;12519;43.318;21.898;2022-08-04T03:30:06;6.0;;;5.0;;
21120;SDS011;12519;43.318;21.898;2022-08-04T03:36:54;6.0;;;5.0;;
21120;SDS011;12519;43.318;21.898;2022-08-04T03:44:06;5.0;;;5.0;;
21120;SDS011;12519;43.318;21.898;2022-08-04T03:50:47;5.0;;;5.0;;
21120;SDS011;12519;43.318;21.898;2022-08-04T03:57:51;6.0;;;5.0;;
21120;SDS011;12519;43.318;21.898;2022-08-04T04:03:57;7.0;;;5.0;;
21120;SDS011;12519;43.318;21.898;2022-08-04T04:10:23;7.0;;;5.0;;
21120;SDS011;12519;43.318;21.898;2022-08-04T04:16:39;6.0;;;5.0;;
21120;SDS011;12519;43.318;21.898;2022-08-04T04:22:23;6.0;;;5.0;;
21120;SDS011;12519;43.318;21.898;2022-08-04T04:28:09;6.0;;;5.0;;
21120;SDS011;12519;43.318;21.898;2022-08-04T04:33:52;7.0;;;6.0;;
21120;SDS011;12519;43.318;21.898;2022-08-04T04:39:31;7.0;;;6.0;;
21120;SDS011;12519;43.318;21.898;2022-08-04T04:45:13;8.0;;;6.0;;
21120;SDS011;12519;43.318;21.898;2022-08-04T04:50:36;8.0;;;6.0;;
21120;SDS011;12519;43.318;21.898;2022-08-04T04:56:43;11.0;;;8.0;;
21120;SDS011;12519;43.318;21.898;2022-08-04T05:03:48;14.0;;;11.0;;
21120;SDS011;12519;43.318;21.898;2022-08-04T05:10:56;14.0;;;11.0;;
21120;SDS011;12519;43.318;21.898;2022-08-04T05:17:23;15.0;;;12.0;;
21120;SDS011;12519;43.318;21.898;2022-08-04T05:22:34;16.0;;;12.0;;
21120;SDS011;12519;43.318;21.898;2022-08-04T05:28:01;16.0;;;12.0;;
21120;SDS011;12519;43.318;21.898;2022-08-04T05:33:06;14.0;;;11.0;;
21120;SDS011;12519;43.318;21.898;2022-08-04T05:38:04;14.0;;;11.0;;
21120;SDS011;12519;43.318;21.898;2022-08-04T05:42:57;11.0;;;10.0;;
21120;SDS011;12519;43.318;21.898;2022-08-04T05:47:38;11.0;;;10.0;;
21120;SDS011;12519;43.318;21.898;2022-08-04T05:52:18;13.0;;;10.0;;
21120;SDS011;12519;43.318;21.898;2022-08-04T05:57:06;13.0;;;10.0;;
21120;SDS011;12519;43.318;21.898;2022-08-04T06:01:48;15.0;;;11.0;;
21120;SDS011;12519;43.318;21.898;2022-08-04T06:06:34;15.0;;;11.0;;
21120;SDS011;12519;43.318;21.898;2022-08-04T06:11:19;15.0;;;11.0;;
21120;SDS011;12519;43.318;21.898;2022-08-04T06:16:08;12.0;;;10.0;;
21120;SDS011;12519;43.318;21.898;2022-08-04T06:21:02;12.0;;;10.0;;
21120;SDS011;12519;43.318;21.898;2022-08-04T06:25:59;10.0;;;8.0;;
21120;SDS011;12519;43.318;21.898;2022-08-04T06:30:44;10.0;;;8.0;;
21120;SDS011;12519;43.318;21.898;2022-08-04T06:35:27;10.0;;;8.0;;
21120;SDS011;12519;43.318;21.898;2022-08-04T06:40:13;10.0;;;8.0;;
21120;SDS011;12519;43.318;21.898;2022-08-04T06:45:05;9.0;;;9.0;;
21120;SDS011;12519;43.318;21.898;2022-08-04T06:49:55;9.0;;;9.0;;
21120;SDS011;12519;43.318;21.898;2022-08-04T06:54:34;11.0;;;9.0;;
21120;SDS011;12519;43.318;21.898;2022-08-04T06:59:16;11.0;;;9.0;;
21120;SDS011;12519;43.318;21.898;2022-08-04T07:03:56;13.0;;;9.0;;
21120;SDS011;12519;43.318;21.898;2022-08-04T07:08:36;13.0;;;9.0;;
21120;SDS011;12519;43.318;21.898;2022-08-04T07:13:15;12.0;;;9.0;;
21120;SDS011;12519;43.318;21.898;2022-08-04T07:17:56;12.0;;;9.0;;
21120;SDS011;12519;43.318;21.898;2022-08-04T07:22:35;10.0;;;9.0;;
21120;SDS011;12519;43.318;21.898;2022-08-04T07:27:17;10.0;;;9.0;;
21120;SDS011;12519;43.318;21.898;2022-08-04T07:31:59;10.0;;;9.0;;
21120;SDS011;12519;43.318;21.898;2022-08-04T07:36:42;10.0;;;8.0;;
21120;SDS011;12519;43.318;21.898;2022-08-04T07:41:23;10.0;;;8.0;;
21120;SDS011;12519;43.318;21.898;2022-08-04T07:46:03;9.0;;;8.0;;
21120;SDS011;12519;43.318;21.898;2022-08-04T07:50:44;9.0;;;8.0;;
21120;SDS011;12519;43.318;21.898;2022-08-04T07:55:24;8.0;;;8.0;;
21120;SDS011;12519;43.318;21.898;2022-08-04T08:00:10;8.0;;;8.0;;
21120;SDS011;12519;43.318;21.898;2022-08-04T08:04:52;8.0;;;7.0;;
21120;SDS011;12519;43.318;21.898;2022-08-04T08:09:33;8.0;;;7.0;;
21120;SDS011;12519;43.318;21.898;2022-08-04T08:14:12;9.0;;;8.0;;
21120;SDS011;12519;43.318;21.898;2022-08-04T08:18:51;9.0;;;8.0;;
21120;SDS011;12519;43.318;21.898;2022-08-04T08:23:34;10.0;;;8.0;;
21120;SDS011;12519;43.318;21.898;2022-08-04T08:28:15;10.0;;;8.0;;
21120;SDS011;12519;43.318;21.898;2022-08-04T08:32:52;10.0;;;8.0;;
21120;SDS011;12519;43.318;21.898;2022-08-04T08:37:44;10.0;;;8.0;;
21120;SDS011;12519;43.318;21.898;2022-08-04T08:43:23;9.0;;;9.0;;
21120;SDS011;12519;43.318;21.898;2022-08-04T08:50:00;9.0;;;9.0;;
21120;SDS011;12519;43.318;21.898;2022-08-04T08:55:47;8.0;;;8.0;;
21120;SDS011;12519;43.318;21.898;2022-08-04T09:01:46;8.0;;;8.0;;
21120;SDS011;12519;43.318;21.898;2022-08-04T09:08:14;8.0;;;8.0;;
21120;SDS011;12519;43.318;21.898;2022-08-04T09:13:49;8.0;;;8.0;;
21120;SDS011;12519;43.318;21.898;2022-08-04T09:18:57;8.0;;;8.0;;
21120;SDS011;12519;43.318;21.898;2022-08-04T09:24:13;9.0;;;8.0;;
21120;SDS011;12519;43.318;21.898;2022-08-04T09:29:42;9.0;;;8.0;;
21120;SDS011;12519;43.318;21.898;2022-08-04T09:35:05;8.0;;;8.0;;
21120;SDS011;12519;43.318;21.898;2022-08-04T09:40:20;8.0;;;8.0;;
21120;SDS011;12519;43.318;21.898;2022-08-04T09:45:26;8.0;;;7.0;;
21120;SDS011;12519;43.318;21.898;2022-08-04T09:50:36;8.0;;;7.0;;
21120;SDS011;12519;43.318;21.898;2022-08-04T09:55:49;8.0;;;6.0;;
21120;SDS011;12519;43.318;21.898;2022-08-04T10:01:00;8.0;;;6.0;;
21120;SDS011;12519;43.318;21.898;2022-08-04T10:06:34;8.0;;;6.0;;
21120;SDS011;12519;43.318;21.898;2022-08-04T10:12:34;8.0;;;6.0;;
21120;SDS011;12519;43.318;21.898;2022-08-04T10:18:39;8.0;;;6.0;;
21120;SDS011;12519;43.318;21.898;2022-08-04T10:24:50;7.0;;;6.0;;
21120;SDS011;12519;43.318;21.898;2022-08-04T10:30:21;7.0;;;6.0;;
21120;SDS011;12519;43.318;21.898;2022-08-04T10:35:14;6.0;;;6.0;;
21120;SDS011;12519;43.318;21.898;2022-08-04T10:40:12;6.0;;;6.0;;
21120;SDS011;12519;43.318;21.898;2022-08-04T10:45:22;6.0;;;6.0;;
21120;SDS011;12519;43.318;21.898;2022-08-04T10:50:28;6.0;;;6.0;;
21120;SDS011;12519;43.318;21.898;2022-08-04T10:55:30;8.0;;;7.0;;
21120;SDS011;12519;43.318;21.898;2022-08-04T11:00:27;8.0;;;7.0;;
21120;SDS011;12519;43.318;21.898;2022-08-04T11:05:42;9.0;;;8.0;;
21120;SDS011;12519;43.318;21.898;2022-08-04T11:10:47;9.0;;;8.0;;
21120;SDS011;12519;43.318;21.898;2022-08-04T11:15:54;8.0;;;7.0;;
21120;SDS011;12519;43.318;21.898;2022-08-04T11:20:55;8.0;;;7.0;;
21120;SDS011;12519;43.318;21.898;2022-08-04T11:26:07;6.0;;;6.0;;
21120;SDS011;12519;43.318;21.898;2022-08-04T11:31:20;6.0;;;6.0;;
21120;SDS011;12519;43.318;21.898;2022-08-04T11:36:25;6.0;;;6.0;;
21120;SDS011;12519;43.318;21.898;2022-08-04T11:41:50;6.0;;;6.0;;
21120;SDS011;12519;43.318;21.898;2022-08-04T11:47:23;6.0;;;6.0;;
21120;SDS011;12519;43.318;21.898;2022-08-04T11:52:18;6.0;;;6.0;;
21120;SDS011;12519;43.318;21.898;2022-08-04T11:57:01;6.0;;;6.0;;
21120;SDS011;12519;43.318;21.898;2022-08-04T12:02:27;6.0;;;6.0;;
21120;SDS011;12519;43.318;21.898;2022-08-04T12:09:06;7.0;;;6.0;;
21120;SDS011;12519;43.318;21.898;2022-08-04T12:14:42;6.0;;;6.0;;
21120;SDS011;12519;43.318;21.898;2022-08-04T12:19:56;6.0;;;6.0;;
21120;SDS011;12519;43.318;21.898;2022-08-04T12:24:52;6.0;;;6.0;;
21120;SDS011;12519;43.318;21.898;2022-08-04T12:29:46;6.0;;;6.0;;
21120;SDS011;12519;43.318;21.898;2022-08-04T12:34:39;6.0;;;6.0;;
21120;SDS011;12519;43.318;21.898;2022-08-04T12:39:47;6.0;;;6.0;;
21120;SDS011;12519;43.318;21.898;2022-08-04T12:44:51;6.0;;;6.0;;
21120;SDS011;12519;43.318;21.898;2022-08-04T12:49:43;6.0;;;6.0;;
21120;SDS011;12519;43.318;21.898;2022-08-04T12:54:35;6.0;;;6.0;;
21120;SDS011;12519;43.318;21.898;2022-08-04T12:59:27;6.0;;;6.0;;
21120;SDS011;12519;43.318;21.898;2022-08-04T13:04:17;5.0;;;5.0;;
21120;SDS011;12519;43.318;21.898;2022-08-04T13:09:14;5.0;;;5.0;;
21120;SDS011;12519;43.318;21.898;2022-08-04T13:14:01;6.0;;;6.0;;
21120;SDS011;12519;43.318;21.898;2022-08-04T13:18:49;6.0;;;6.0;;
21120;SDS011;12519;43.318;21.898;2022-08-04T13:23:27;7.0;;;7.0;;
21120;SDS011;12519;43.318;21.898;2022-08-04T13:28:15;7.0;;;7.0;;
21120;SDS011;12519;43.318;21.898;2022-08-04T13:33:05;6.0;;;6.0;;
21120;SDS011;12519;43.318;21.898;2022-08-04T13:37:45;6.0;;;6.0;;
21120;SDS011;12519;43.318;21.898;2022-08-04T13:42:26;6.0;;;6.0;;
21120;SDS011;12519;43.318;21.898;2022-08-04T13:47:24;6.0;;;5.0;;
21120;SDS011;12519;43.318;21.898;2022-08-04T13:52:10;6.0;;;5.0;;
21120;SDS011;12519;43.318;21.898;2022-08-04T13:56:58;6.0;;;6.0;;
21120;SDS011;12519;43.318;21.898;2022-08-04T14:02:05;6.0;;;6.0;;
21120;SDS011;12519;43.318;21.898;2022-08-04T14:07:16;7.0;;;6.0;;
21120;SDS011;12519;43.318;21.898;2022-08-04T14:12:13;7.0;;;6.0;;
21120;SDS011;12519;43.318;21.898;2022-08-04T14:17:06;7.0;;;6.0;;
21120;SDS011;12519;43.318;21.898;2022-08-04T14:21:52;7.0;;;6.0;;
21120;SDS011;12519;43.318;21.898;2022-08-04T14:26:34;7.0;;;6.0;;
21120;SDS011;12519;43.318;21.898;2022-08-04T14:31:17;7.0;;;6.0;;
21120;SDS011;12519;43.318;21.898;2022-08-04T14:35:59;8.0;;;6.0;;
21120;SDS011;12519;43.318;21.898;2022-08-04T14:40:42;8.0;;;6.0;;
21120;SDS011;12519;43.318;21.898;2022-08-04T14:45:30;8.0;;;7.0;;
21120;SDS011;12519;43.318;21.898;2022-08-04T14:50:15;8.0;;;7.0;;
21120;SDS011;12519;43.318;21.898;2022-08-04T14:54:52;8.0;;;7.0;;
21120;SDS011;12519;43.318;21.898;2022-08-04T14:59:43;8.0;;;7.0;;
21120;SDS011;12519;43.318;21.898;2022-08-04T15:04:26;8.0;;;7.0;;
21120;SDS011;12519;43.318;21.898;2022-08-04T15:09:09;8.0;;;7.0;;
21120;SDS011;12519;43.318;21.898;2022-08-04T15:13:46;8.0;;;8.0;;
21120;SDS011;12519;43.318;21.898;2022-08-04T15:18:25;8.0;;;8.0;;
21120;SDS011;12519;43.318;21.898;2022-08-04T15:23:04;8.0;;;8.0;;
21120;SDS011;12519;43.318;21.898;2022-08-04T15:27:50;8.0;;;8.0;;
21120;SDS011;12519;43.318;21.898;2022-08-04T15:32:42;8.0;;;8.0;;
21120;SDS011;12519;43.318;21.898;2022-08-04T15:38:02;8.0;;;8.0;;
21120;SDS011;12519;43.318;21.898;2022-08-04T15:44:10;9.0;;;8.0;;
21120;SDS011;12519;43.318;21.898;2022-08-04T15:50:11;9.0;;;8.0;;
21120;SDS011;12519;43.318;21.898;2022-08-04T15:55:34;9.0;;;8.0;;
21120;SDS011;12519;43.318;21.898;2022-08-04T16:00:18;9.0;;;8.0;;
21120;SDS011;12519;43.318;21.898;2022-08-04T16:05:33;9.0;;;7.0;;
21120;SDS011;12519;43.318;21.898;2022-08-04T16:10:38;9.0;;;7.0;;
21120;SDS011;12519;43.318;21.898;2022-08-04T16:15:42;8.0;;;7.0;;
21120;SDS011;12519;43.318;21.898;2022-08-04T16:20:31;8.0;;;7.0;;
21120;SDS011;12519;43.318;21.898;2022-08-04T16:25:12;7.0;;;7.0;;
21120;SDS011;12519;43.318;21.898;2022-08-04T16:30:05;7.0;;;7.0;;
21120;SDS011;12519;43.318;21.898;2022-08-04T16:34:58;8.0;;;7.0;;
21120;SDS011;12519;43.318;21.898;2022-08-04T16:39:40;8.0;;;7.0;;
21120;SDS011;12519;43.318;21.898;2022-08-04T16:44:36;9.0;;;7.0;;
21120;SDS011;12519;43.318;21.898;2022-08-04T16:49:12;9.0;;;7.0;;
21120;SDS011;12519;43.318;21.898;2022-08-04T16:53:51;9.0;;;8.0;;
21120;SDS011;12519;43.318;21.898;2022-08-04T16:58:34;9.0;;;8.0;;
21120;SDS011;12519;43.318;21.898;2022-08-04T17:03:12;9.0;;;8.0;;
21120;SDS011;12519;43.318;21.898;2022-08-04T17:07:52;9.0;;;8.0;;
21120;SDS011;12519;43.318;21.898;2022-08-04T17:12:34;9.0;;;8.0;;
21120;SDS011;12519;43.318;21.898;2022-08-04T17:17:10;8.0;;;8.0;;
21120;SDS011;12519;43.318;21.898;2022-08-04T17:21:49;8.0;;;8.0;;
21120;SDS011;12519;43.318;21.898;2022-08-04T17:26:39;8.0;;;7.0;;
21120;SDS011;12519;43.318;21.898;2022-08-04T17:31:27;8.0;;;7.0;;
21120;SDS011;12519;43.318;21.898;2022-08-04T17:36:16;8.0;;;7.0;;
21120;SDS011;12519;43.318;21.898;2022-08-04T17:41:07;8.0;;;7.0;;
21120;SDS011;12519;43.318;21.898;2022-08-04T17:46:20;8.0;;;7.0;;
21120;SDS011;12519;43.318;21.898;2022-08-04T17:51:14;8.0;;;7.0;;
21120;SDS011;12519;43.318;21.898;2022-08-04T17:55:52;8.0;;;8.0;;
21120;SDS011;12519;43.318;21.898;2022-08-04T18:00:34;8.0;;;8.0;;
21120;SDS011;12519;43.318;21.898;2022-08-04T18:05:27;8.0;;;8.0;;
21120;SDS011;12519;43.318;21.898;2022-08-04T18:10:06;8.0;;;8.0;;
21120;SDS011;12519;43.318;21.898;2022-08-04T18:14:49;8.0;;;8.0;;
21120;SDS011;12519;43.318;21.898;2022-08-04T18:19:37;8.0;;;8.0;;
21120;SDS011;12519;43.318;21.898;2022-08-04T18:24:32;7.0;;;7.0;;
21120;SDS011;12519;43.318;21.898;2022-08-04T18:29:10;7.0;;;7.0;;
21120;SDS011;12519;43.318;21.898;2022-08-04T18:33:47;8.0;;;8.0;;
21120;SDS011;12519;43.318;21.898;2022-08-04T18:38:24;8.0;;;8.0;;
21120;SDS011;12519;43.318;21.898;2022-08-04T18:43:01;8.0;;;8.0;;
21120;SDS011;12519;43.318;21.898;2022-08-04T18:47:39;9.0;;;8.0;;
21120;SDS011;12519;43.318;21.898;2022-08-04T18:52:16;9.0;;;8.0;;
21120;SDS011;12519;43.318;21.898;2022-08-04T18:56:54;10.0;;;10.0;;
21120;SDS011;12519;43.318;21.898;2022-08-04T19:01:32;10.0;;;10.0;;
21120;SDS011;12519;43.318;21.898;2022-08-04T19:06:09;11.0;;;11.0;;
21120;SDS011;12519;43.318;21.898;2022-08-04T19:10:46;11.0;;;11.0;;
21120;SDS011;12519;43.318;21.898;2022-08-04T19:15:23;10.0;;;10.0;;
21120;SDS011;12519;43.318;21.898;2022-08-04T19:20:00;10.0;;;10.0;;
21120;SDS011;12519;43.318;21.898;2022-08-04T19:24:37;9.0;;;8.0;;
21120;SDS011;12519;43.318;21.898;2022-08-04T19:29:14;9.0;;;8.0;;
21120;SDS011;12519;43.318;21.898;2022-08-04T19:33:51;10.0;;;9.0;;
21120;SDS011;12519;43.318;21.898;2022-08-04T19:38:27;10.0;;;9.0;;
21120;SDS011;12519;43.318;21.898;2022-08-04T19:43:06;10.0;;;9.0;;
21120;SDS011;12519;43.318;21.898;2022-08-04T19:47:43;10.0;;;10.0;;
21120;SDS011;12519;43.318;21.898;2022-08-04T19:52:20;10.0;;;10.0;;
21120;SDS011;12519;43.318;21.898;2022-08-04T19:56:56;10.0;;;10.0;;
21120;SDS011;12519;43.318;21.898;2022-08-04T20:01:32;10.0;;;10.0;;
21120;SDS011;12519;43.318;21.898;2022-08-04T20:06:09;11.0;;;10.0;;
21120;SDS011;12519;43.318;21.898;2022-08-04T20:10:45;11.0;;;10.0;;
21120;SDS011;12519;43.318;21.898;2022-08-04T20:15:22;12.0;;;10.0;;
21120;SDS011;12519;43.318;21.898;2022-08-04T20:20:00;12.0;;;10.0;;
21120;SDS011;12519;43.318;21.898;2022-08-04T20:24:38;12.0;;;10.0;;
21120;SDS011;12519;43.318;21.898;2022-08-04T20:29:14;12.0;;;10.0;;
21120;SDS011;12519;43.318;21.898;2022-08-04T20:33:51;12.0;;;10.0;;
21120;SDS011;12519;43.318;21.898;2022-08-04T20:38:28;12.0;;;10.0;;
21120;SDS011;12519;43.318;21.898;2022-08-04T20:43:05;12.0;;;10.0;;
21120;SDS011;12519;43.318;21.898;2022-08-04T20:47:44;12.0;;;11.0;;
21120;SDS011;12519;43.318;21.898;2022-08-04T20:52:21;12.0;;;11.0;;
21120;SDS011;12519;43.318;21.898;2022-08-04T20:56:58;12.0;;;10.0;;
21120;SDS011;12519;43.318;21.898;2022-08-04T21:01:35;12.0;;;10.0;;
21120;SDS011;12519;43.318;21.898;2022-08-04T21:06:12;11.0;;;10.0;;
21120;SDS011;12519;43.318;21.898;2022-08-04T21:10:49;11.0;;;10.0;;
21120;SDS011;12519;43.318;21.898;2022-08-04T21:15:26;11.0;;;10.0;;
21120;SDS011;12519;43.318;21.898;2022-08-04T21:20:04;11.0;;;10.0;;
21120;SDS011;12519;43.318;21.898;2022-08-04T21:24:45;11.0;;;10.0;;
21120;SDS011;12519;43.318;21.898;2022-08-04T21:29:23;11.0;;;10.0;;
21120;SDS011;12519;43.318;21.898;2022-08-04T21:34:01;12.0;;;10.0;;
21120;SDS011;12519;43.318;21.898;2022-08-04T21:38:38;12.0;;;10.0;;
21120;SDS011;12519;43.318;21.898;2022-08-04T21:43:16;12.0;;;10.0;;
21120;SDS011;12519;43.318;21.898;2022-08-04T21:47:54;13.0;;;9.0;;
21120;SDS011;12519;43.318;21.898;2022-08-04T21:52:30;13.0;;;9.0;;
21120;SDS011;12519;43.318;21.898;2022-08-04T21:57:07;10.0;;;8.0;;
21120;SDS011;12519;43.318;21.898;2022-08-04T22:01:44;10.0;;;8.0;;
21120;SDS011;12519;43.318;21.898;2022-08-04T22:06:21;8.0;;;7.0;;
21120;SDS011;12519;43.318;21.898;2022-08-04T22:11:00;8.0;;;7.0;;
21120;SDS011;12519;43.318;21.898;2022-08-04T22:15:38;9.0;;;8.0;;
21120;SDS011;12519;43.318;21.898;2022-08-04T22:20:15;9.0;;;8.0;;
21120;SDS011;12519;43.318;21.898;2022-08-04T22:24:54;10.0;;;9.0;;
21120;SDS011;12519;43.318;21.898;2022-08-04T22:29:34;10.0;;;9.0;;
21120;SDS011;12519;43.318;21.898;2022-08-04T22:34:11;12.0;;;8.0;;
21120;SDS011;12519;43.318;21.898;2022-08-04T22:38:48;12.0;;;8.0;;
21120;SDS011;12519;43.318;21.898;2022-08-04T22:43:27;12.0;;;8.0;;
21120;SDS011;12519;43.318;21.898;2022-08-04T22:48:06;13.0;;;8.0;;
21120;SDS011;12519;43.318;21.898;2022-08-04T22:52:42;13.0;;;8.0;;
21120;SDS011;12519;43.318;21.898;2022-08-04T22:57:19;10.0;;;8.0;;
21120;SDS011;12519;43.318;21.898;2022-08-04T23:01:56;10.0;;;8.0;;
21120;SDS011;12519;43.318;21.898;2022-08-04T23:06:33;8.0;;;7.0;;
21120;SDS011;12519;43.318;21.898;2022-08-04T23:11:10;8.0;;;7.0;;
21120;SDS011;12519;43.318;21.898;2022-08-04T23:15:47;8.0;;;7.0;;
21120;SDS011;12519;43.318;21.898;2022-08-04T23:20:23;8.0;;;7.0;;
21120;SDS011;12519;43.318;21.898;2022-08-04T23:25:00;8.0;;;7.0;;
21120;SDS011;12519;43.318;21.898;2022-08-04T23:29:37;8.0;;;7.0;;
21120;SDS011;12519;43.318;21.898;2022-08-04T23:34:13;8.0;;;6.0;;
21120;SDS011;12519;43.318;21.898;2022-08-04T23:38:50;8.0;;;6.0;;
21120;SDS011;12519;43.318;21.898;2022-08-04T23:43:27;8.0;;;6.0;;
21120;SDS011;12519;43.318;21.898;2022-08-04T23:48:04;7.0;;;6.0;;
21120;SDS011;12519;43.318;21.898;2022-08-04T23:52:42;7.0;;;6.0;;
21120;SDS011;12519;43.318;21.898;2022-08-04T23:57:18;8.0;;;6.0;;
